< Cyclone 200001 2000 Season Cyclone 200003 >
Cyclone 200002 (JOHN)
General InformationDetailed Track InformationTrack Information on Google MapsList of All Images || ResourceGoogle EarthGE AnimationAtom FeedGeoJSON
Detalied Best Track Wind (Time Zone = UTC)
Year Month Day Hour Lat. Long. Wind (kt) Gust (kt) Direc. of Major Storm Axis Radius of Major Storm Axis (nm) Radius of Minor Storm Axis (nm) Direc. of Major Gale Axis Radius of Major Gale Axis (nm) Radius of Minor Gale Axis (nm) Image
1999 12 9 07 -10.4 122.5 23 -1 symmetric - - symmetric - - Image
1999 12 9 10 -10.4 122.1 23 -1 symmetric - - symmetric - - Image
1999 12 9 16 -10.8 121.2 23 -1 symmetric - - symmetric - - Image
1999 12 9 19 -11.1 121.0 23 -1 symmetric - - symmetric - - Image
1999 12 9 22 -11.4 120.9 23 -1 symmetric - - symmetric - - Image
1999 12 10 04 -11.8 120.7 23 -1 symmetric - - symmetric - - Image
1999 12 10 07 -12.4 120.6 27 -1 symmetric - - symmetric - - Image
1999 12 10 10 -12.5 120.6 27 -1 symmetric - - symmetric - - Image
1999 12 10 16 -12.9 120.5 27 -1 symmetric - - symmetric - - Image
1999 12 10 22 -13.2 120.1 29 -1 symmetric - - symmetric - - Image
1999 12 11 04 -13.4 120.0 29 -1 symmetric - - symmetric - - Image
1999 12 11 07 -13.4 120.0 29 -1 symmetric - - symmetric - - Image
1999 12 11 10 -13.5 119.9 29 -1 symmetric - - symmetric - - Image
1999 12 11 13 -13.5 119.9 35 -1 symmetric - - symmetric - - Image
1999 12 11 16 -13.6 119.8 35 -1 symmetric - - symmetric - - Image
1999 12 11 19 -13.7 119.7 49 -1 symmetric - - symmetric - - Image
1999 12 11 22 -13.8 119.6 49 -1 symmetric - - symmetric - - Image
1999 12 12 01 -13.9 119.4 54 -1 symmetric - - symmetric - - Image
1999 12 12 04 -14.1 119.4 60 -1 symmetric - - symmetric - - Image
1999 12 12 07 -14.4 119.4 60 -1 symmetric - - symmetric - - Image
1999 12 12 10 -14.7 119.4 60 -1 symmetric - - symmetric - - Image
1999 12 12 13 -15.0 119.4 60 -1 symmetric - - symmetric - - Image
1999 12 12 16 -15.2 119.3 60 -1 symmetric - - symmetric - - Image
1999 12 12 19 -15.5 119.2 60 -1 symmetric - - symmetric - - Image
1999 12 12 22 -15.8 119.2 64 -1 symmetric - - symmetric - - Image
1999 12 13 01 -16.2 118.9 70 -1 symmetric - - symmetric - - Image
1999 12 13 04 -16.5 118.6 70 -1 symmetric - - symmetric - - Image
1999 12 13 07 -16.7 118.6 70 -1 symmetric - - symmetric - - Image
1999 12 13 10 -17.0 118.5 70 -1 symmetric - - symmetric - - Image
1999 12 13 13 -17.2 118.3 76 -1 symmetric - - symmetric - - Image
1999 12 13 16 -17.4 118.1 84 -1 symmetric - - symmetric - - Image
1999 12 13 19 -17.6 118.0 93 -1 symmetric - - symmetric - - Image
1999 12 13 22 -17.8 117.8 101 -1 symmetric - - symmetric - - Image
1999 12 14 01 -18.1 117.6 111 -1 symmetric - - symmetric - - Image
1999 12 14 04 -18.4 117.5 111 -1 symmetric - - symmetric - - Image
1999 12 14 07 -18.8 117.4 111 -1 symmetric - - symmetric - - Image
1999 12 14 10 -19.1 117.3 111 -1 symmetric - - symmetric - - Image
1999 12 14 13 -19.4 117.3 111 -1 symmetric - - symmetric - - Image
1999 12 14 16 -19.7 117.3 111 -1 symmetric - - symmetric - - Image
1999 12 14 19 -20.0 117.4 101 -1 symmetric - - symmetric - - Image
1999 12 14 22 -20.4 117.5 93 -1 symmetric - - symmetric - - Image
1999 12 15 01 -20.7 117.6 84 -1 symmetric - - symmetric - - Image
1999 12 15 04 -21.1 117.8 76 -1 symmetric - - symmetric - - Image
1999 12 15 07 -21.5 118.0 64 -1 symmetric - - symmetric - - Image
1999 12 15 10 -21.8 118.4 64 -1 symmetric - - symmetric - - Image
1999 12 15 13 -22.0 118.8 60 -1 symmetric - - symmetric - - Image
1999 12 15 16 -22.3 119.2 54 -1 symmetric - - symmetric - - Image
1999 12 15 19 -22.6 119.6 49 -1 symmetric - - symmetric - - Image
1999 12 15 22 -23.0 120.2 41 -1 symmetric - - symmetric - - Image
1999 12 16 01 -23.3 120.6 35 -1 symmetric - - symmetric - - Image
< Cyclone 200001 2000 Season Cyclone 200003 >

Help